Marsland, Nebraska
Current Conditions -  °F | °C
As of 1:53 PM on Saturday 25 Oct 2014 (Local Time) from KCDR Reporting Station
Clear Clear  
Wind Chill: 69°   Ceiling: Unl
Heat Index: 69°   Visibility: 10mi
Dew Point: 40°   Wind: 7mph
Humidity: 35%   Direction: 60°ENE
Pressure: 30.04"   Gusts: NA
Location:  42.44°N, 103.3°W
Report Text: KCDR 251953Z AUTO 06006KT 10SM CLR 21/04 A3004 RMK AO2 SLP177 T02060044
Loading
Personal Weather Stations






























Interactive Weather Map
Tropical Storm Tracking
New forecast layout! Learn more

10-Day Weather Forecast

Advertisements
Track Severe Weather on mobile